METAR Data
IDs: Format: Raw Decoded Include TAF

Data at: 1103 UTC 26 Sep 2018

KMOB 261056Z VRB03KT 7SM FEW020 SCT250 24/23 A3006 RMK AO2 SLP176 T02390233
KMOB 260956Z AUTO 00000KT 10SM CLR 24/24 A3005 RMK AO2 SLP171 T02440239
KMOB 260856Z AUTO 07003KT 10SM CLR 24/23 A3005 RMK AO2 SLP172 T02440233 56011
KMOB 260756Z AUTO 00000KT 10SM CLR 25/24 A3005 RMK AO2 SLP173 T02500239
KMOB 260656Z AUTO 17003KT 10SM CLR 26/24 A3006 RMK AO2 LTG DSNT W SLP176 T02560239
KMOB 260556Z AUTO 15006KT 10SM CLR 26/24 A3008 RMK AO2 SLP183 T02560239 10278 20256 403110239 58001
KMOB 260456Z AUTO 16005KT 10SM CLR 26/24 A3009 RMK AO2 SLP187 T02560239
KMOB 260356Z 15003KT 10SM CLR 26/24 A3010 RMK AO2 SLP188 T02560239
KMOB 260256Z 18004KT 10SM FEW015 FEW250 26/24 A3009 RMK AO2 SLP184 T02560239 53014
KMOB 260156Z 17005KT 10SM SCT250 27/24 A3007 RMK AO2 SLP179 T02670244
KMOB 260056Z 15005KT 10SM FEW090 FEW200 27/24 A3006 RMK AO2 SLP174 T02670244
KMOB 252356Z 18005KT 10SM FEW025 SCT090 SCT200 28/24 A3004 RMK AO2 SLP170 CB DSNT E T02780239 10311 20278 53007
KMOB 252256Z 20008KT 10SM FEW030 SCT150 30/23 A3003 RMK AO2 SLP166 CB DSNT NE AND SE T03000233
KMOB 252156Z 17006KT 10SM FEW020 FEW080 SCT200 31/23 A3002 RMK AO2 SLP160 CB DSNT NE AND E T03060228
KMOB 252056Z 13008KT 10SM SCT024 SCT055 SCT250 30/24 A3002 RMK AO2 SLP163 CB DSNT E AND SW AND NW T03000239 56019
KMOB 251956Z 15010KT 10SM SCT025 SCT080 BKN250 30/24 A3002 RMK AO2 SLP163 T03000244
KMOB 251856Z 14008KT 10SM BKN024 BKN060 BKN150 31/24 A3005 RMK AO2 SLP172 T03060244
KMOB 251822Z 17011KT 10SM BKN024 BKN060 BKN150 29/24 A3006 RMK AO2 T02940239
KMOB 251756Z 13008KT 10SM SCT025 SCT060 BKN150 30/24 A3008 RMK AO2 SLP181 60023 T03000244 10306 20239 58008
KMOB 251656Z 15006KT 7SM FEW010 SCT060 BKN170 28/24 A3009 RMK AO2 SLP186 T02830244
KMOB 251556Z 15006KT 7SM FEW010 SCT060 BKN170 26/24 A3011 RMK AO2 SLP191 T02560239
KMOB 251456Z 13006KT 7SM FEW025 SCT045 BKN110 25/24 A3010 RMK AO2 RAE32 SLP190 CB DSNT ALQDS P0002 60023 T02500239 51009
KMOB 251356Z 14006KT 3SM -RA BR FEW023 SCT041 BKN120 24/24 A3009 RMK AO2 LTG DSNT S SLP186 CB DSNT ALQDS P0008 T02440239
KMOB 251302Z 14009KT 3SM RA BR FEW023 BKN055 BKN110 24/23 A3009 RMK AO2 LTG DSNT SE CB DSNT ALQDS P0004 T02390233
KMOB 251256Z 14009KT 2SM RA BR FEW023 BKN055 BKN110 24/23 A3009 RMK AO2 LTG DSNT SW SLP186 CB DSNT ALQDS P0013 T02390233
KMOB 251249Z 14008KT 2SM +RA BR SCT023 BKN055 OVC110 24/23 A3009 RMK AO2 LTG DSNT SW CB DSNT ALQDS P0008 T02440233
KMOB 251156Z 00000KT 4SM -RA BR SCT023 BKN055 OVC085 25/24 A3008 RMK AO2 LTG DSNT SE-SW RAB31 SLP181 CB DSNT ALQDS P0004 60009 70016 T02500239 10256 20244 53017
KMOB 251144Z 04003KT 4SM -RA BR SCT025 BKN037 OVC085 25/24 A3007 RMK AO2 LTG DSNT S AND SW RAB31 CB DSNT ALQDS P0004 T02500239
KMOB 251130Z 11008KT 6SM BR BKN023 BKN090 OVC180 25/24 A3006 RMK AO2 LTG DSNT NE-S CB DSNT N-E-S T02500239
KMOB 251056Z 11003KT 5SM BR SCT017 BKN036 BKN150 25/24 A3005 RMK AO2 LTG DSNT E AND SE RAB02E21 SLP173 CB DSNT N-E-S P0005 T02500244
KMOB 251035Z AUTO 00000KT 10SM FEW022 SCT036 25/24 A3003 RMK AO2 RAB02E21 P0005 T02500239
KMOB 251028Z AUTO 00000KT 10SM FEW018 BKN024 BKN036 24/24 A3003 RMK AO2 RAB02E21 P0005 T02440239
KMOB 250956Z AUTO 34003KT 10SM CLR 24/24 A3003 RMK AO2 SLP165 T02440239
KMOB 250924Z AUTO 00000KT 10SM FEW019 SCT025 SCT031 24/24 A3003 RMK AO2 T02440239
KMOB 250916Z AUTO 00000KT 10SM BKN021 BKN027 BKN033 25/24 A3003 RMK AO2 T02500239
KMOB 250856Z AUTO 00000KT 10SM SCT021 SCT025 BKN030 25/24 A3002 RMK AO2 SLP163 60000 T02500239 53000
KMOB 250756Z AUTO 00000KT 10SM SCT025 SCT090 25/24 A3002 RMK AO2 LTG DSNT E AND SE SLP163 T02500239
KMOB 250656Z AUTO 00000KT 10SM SCT022 24/23 A3002 RMK AO2 RAB18E27 SLP163 P0000 T02440233
KMOB 250556Z AUTO 12003KT 10SM FEW019 24/23 A3002 RMK AO2 SLP163 60000 T02440233 10267 20244 403060239 58002
KMOB 250456Z AUTO 15008G17KT 10SM FEW027 25/23 A3003 RMK AO2 DZE01 SLP165 P0000 T02500233
KMOB 250356Z 12007KT 10SM -DZ FEW019 SCT032 SCT050 26/25 A3004 RMK AO2 RAE0259B21E30DZB54 SLP167 P0000 T02560250
KMOB 250320Z 12007KT 10SM SCT012 BKN050 26/24 A3004 RMK AO2 RAE0259 P0000 T02610244
KMOB 250256Z 11008KT 10SM -RA BKN012 BKN018 OVC065 26/25 A3003 RMK AO2 RAB30 SLP166 P0000 60000 T02610250 53019
KMOB 250156Z 15004KT 10SM SCT021 BKN030 BKN043 27/24 A3001 RMK AO2 SLP159 T02670239
KMOB 250146Z 15005KT 10SM FEW021 SCT028 BKN043 27/24 A3001 RMK AO2 T02670239
KMOB 250139Z 13006KT 10SM SCT021 BKN028 BKN043 27/24 A3000 RMK AO2 T02670244
KMOB 250056Z 13005KT 10SM FEW020 FEW150 27/24 A2998 RMK AO2 SLP150 T02670244
KMOB 242356Z 14008KT 10SM SCT180 SCT250 27/24 A2997 RMK AO2 SLP146 TCU DSNT SW T02720239 10306 20267 51007